sensor_id;sensor_type;location;lat;lon;timestamp;P1;durP1;ratioP1;P2;durP2;ratioP2
77206;SDS011;66190;50.708;7.906;2023-04-25T00:00:14;10.30;;;2.50;;
77206;SDS011;66190;50.708;7.906;2023-04-25T00:02:39;9.43;;;2.23;;
77206;SDS011;66190;50.708;7.906;2023-04-25T00:05:05;8.27;;;1.98;;
77206;SDS011;66190;50.708;7.906;2023-04-25T00:07:31;8.33;;;2.50;;
77206;SDS011;66190;50.708;7.906;2023-04-25T00:09:57;7.90;;;2.35;;
77206;SDS011;66190;50.708;7.906;2023-04-25T00:12:23;8.82;;;2.42;;
77206;SDS011;66190;50.708;7.906;2023-04-25T00:14:48;8.57;;;2.13;;
77206;SDS011;66190;50.708;7.906;2023-04-25T00:17:15;8.17;;;2.20;;
77206;SDS011;66190;50.708;7.906;2023-04-25T00:19:41;7.57;;;2.38;;
77206;SDS011;66190;50.708;7.906;2023-04-25T00:22:07;7.95;;;2.17;;
77206;SDS011;66190;50.708;7.906;2023-04-25T00:24:32;9.40;;;2.70;;
77206;SDS011;66190;50.708;7.906;2023-04-25T00:26:58;9.37;;;2.33;;
77206;SDS011;66190;50.708;7.906;2023-04-25T00:29:23;8.27;;;1.98;;
77206;SDS011;66190;50.708;7.906;2023-04-25T00:31:49;9.47;;;2.30;;
77206;SDS011;66190;50.708;7.906;2023-04-25T00:34:14;11.57;;;3.13;;
77206;SDS011;66190;50.708;7.906;2023-04-25T00:36:39;12.00;;;2.60;;
77206;SDS011;66190;50.708;7.906;2023-04-25T00:39:05;8.57;;;2.70;;
77206;SDS011;66190;50.708;7.906;2023-04-25T00:41:31;8.90;;;2.80;;
77206;SDS011;66190;50.708;7.906;2023-04-25T00:43:57;14.85;;;3.80;;
77206;SDS011;66190;50.708;7.906;2023-04-25T00:46:24;10.27;;;2.33;;
77206;SDS011;66190;50.708;7.906;2023-04-25T00:48:49;9.97;;;2.37;;
77206;SDS011;66190;50.708;7.906;2023-04-25T00:51:21;11.60;;;2.43;;
77206;SDS011;66190;50.708;7.906;2023-04-25T00:53:50;7.70;;;1.80;;
77206;SDS011;66190;50.708;7.906;2023-04-25T00:56:16;7.20;;;1.98;;
77206;SDS011;66190;50.708;7.906;2023-04-25T00:58:41;8.73;;;2.50;;
77206;SDS011;66190;50.708;7.906;2023-04-25T01:01:09;8.93;;;2.55;;
77206;SDS011;66190;50.708;7.906;2023-04-25T01:03:37;10.40;;;2.50;;
77206;SDS011;66190;50.708;7.906;2023-04-25T01:06:06;9.55;;;2.92;;
77206;SDS011;66190;50.708;7.906;2023-04-25T01:08:34;11.30;;;3.00;;
77206;SDS011;66190;50.708;7.906;2023-04-25T01:11:00;9.35;;;2.53;;
77206;SDS011;66190;50.708;7.906;2023-04-25T01:13:25;11.27;;;2.90;;
77206;SDS011;66190;50.708;7.906;2023-04-25T01:15:51;12.15;;;2.70;;
77206;SDS011;66190;50.708;7.906;2023-04-25T01:18:17;10.10;;;2.93;;
77206;SDS011;66190;50.708;7.906;2023-04-25T01:20:44;7.70;;;2.17;;
77206;SDS011;66190;50.708;7.906;2023-04-25T01:23:10;10.57;;;2.60;;
77206;SDS011;66190;50.708;7.906;2023-04-25T01:25:36;9.88;;;3.13;;
77206;SDS011;66190;50.708;7.906;2023-04-25T01:28:02;10.63;;;2.63;;
77206;SDS011;66190;50.708;7.906;2023-04-25T01:30:27;13.00;;;3.00;;
77206;SDS011;66190;50.708;7.906;2023-04-25T01:32:54;12.27;;;2.78;;
77206;SDS011;66190;50.708;7.906;2023-04-25T01:35:21;8.07;;;2.40;;
77206;SDS011;66190;50.708;7.906;2023-04-25T01:37:49;12.15;;;3.45;;
77206;SDS011;66190;50.708;7.906;2023-04-25T01:40:14;13.13;;;3.50;;
77206;SDS011;66190;50.708;7.906;2023-04-25T01:42:41;10.00;;;2.97;;
77206;SDS011;66190;50.708;7.906;2023-04-25T01:45:08;13.02;;;3.60;;
77206;SDS011;66190;50.708;7.906;2023-04-25T01:47:35;10.65;;;3.00;;
77206;SDS011;66190;50.708;7.906;2023-04-25T01:50:04;10.17;;;3.23;;
77206;SDS011;66190;50.708;7.906;2023-04-25T01:52:32;12.93;;;3.45;;
77206;SDS011;66190;50.708;7.906;2023-04-25T01:54:57;11.63;;;3.50;;
77206;SDS011;66190;50.708;7.906;2023-04-25T01:57:26;14.27;;;3.67;;
77206;SDS011;66190;50.708;7.906;2023-04-25T01:59:51;12.23;;;3.63;;
77206;SDS011;66190;50.708;7.906;2023-04-25T02:02:22;16.13;;;4.03;;
77206;SDS011;66190;50.708;7.906;2023-04-25T02:04:48;9.50;;;3.33;;
77206;SDS011;66190;50.708;7.906;2023-04-25T02:07:13;9.10;;;2.73;;
77206;SDS011;66190;50.708;7.906;2023-04-25T02:09:38;11.20;;;3.07;;
77206;SDS011;66190;50.708;7.906;2023-04-25T02:12:04;14.83;;;3.83;;
77206;SDS011;66190;50.708;7.906;2023-04-25T02:14:29;12.68;;;3.45;;
77206;SDS011;66190;50.708;7.906;2023-04-25T02:16:55;15.30;;;3.07;;
77206;SDS011;66190;50.708;7.906;2023-04-25T02:19:20;7.60;;;2.43;;
77206;SDS011;66190;50.708;7.906;2023-04-25T02:21:46;9.93;;;2.80;;
77206;SDS011;66190;50.708;7.906;2023-04-25T02:24:11;14.33;;;3.47;;
77206;SDS011;66190;50.708;7.906;2023-04-25T02:26:36;13.85;;;4.00;;
77206;SDS011;66190;50.708;7.906;2023-04-25T02:29:02;11.10;;;3.20;;
77206;SDS011;66190;50.708;7.906;2023-04-25T02:31:27;15.57;;;4.37;;
77206;SDS011;66190;50.708;7.906;2023-04-25T02:33:52;10.90;;;3.60;;
77206;SDS011;66190;50.708;7.906;2023-04-25T02:36:18;14.27;;;3.50;;
77206;SDS011;66190;50.708;7.906;2023-04-25T02:38:43;12.70;;;3.50;;
77206;SDS011;66190;50.708;7.906;2023-04-25T02:41:09;13.87;;;3.70;;
77206;SDS011;66190;50.708;7.906;2023-04-25T02:43:34;15.80;;;3.70;;
77206;SDS011;66190;50.708;7.906;2023-04-25T02:46:00;13.73;;;4.17;;
77206;SDS011;66190;50.708;7.906;2023-04-25T02:48:25;16.17;;;4.33;;
77206;SDS011;66190;50.708;7.906;2023-04-25T02:50:51;17.30;;;4.30;;
77206;SDS011;66190;50.708;7.906;2023-04-25T02:53:16;11.27;;;3.72;;
77206;SDS011;66190;50.708;7.906;2023-04-25T02:55:41;20.98;;;3.95;;
77206;SDS011;66190;50.708;7.906;2023-04-25T02:58:07;10.87;;;3.43;;
77206;SDS011;66190;50.708;7.906;2023-04-25T03:00:32;14.53;;;3.80;;
77206;SDS011;66190;50.708;7.906;2023-04-25T03:02:57;11.50;;;3.70;;
77206;SDS011;66190;50.708;7.906;2023-04-25T03:05:23;15.10;;;4.10;;
77206;SDS011;66190;50.708;7.906;2023-04-25T03:07:48;12.95;;;3.75;;
77206;SDS011;66190;50.708;7.906;2023-04-25T03:10:14;13.90;;;3.93;;
77206;SDS011;66190;50.708;7.906;2023-04-25T03:12:39;11.70;;;3.33;;
77206;SDS011;66190;50.708;7.906;2023-04-25T03:15:05;14.20;;;3.33;;
77206;SDS011;66190;50.708;7.906;2023-04-25T03:17:30;12.27;;;3.47;;
77206;SDS011;66190;50.708;7.906;2023-04-25T03:19:56;15.10;;;3.37;;
77206;SDS011;66190;50.708;7.906;2023-04-25T03:22:22;13.38;;;4.65;;
77206;SDS011;66190;50.708;7.906;2023-04-25T03:24:48;11.87;;;3.87;;
77206;SDS011;66190;50.708;7.906;2023-04-25T03:27:13;8.90;;;3.10;;
77206;SDS011;66190;50.708;7.906;2023-04-25T03:29:38;10.80;;;3.80;;
77206;SDS011;66190;50.708;7.906;2023-04-25T03:32:05;12.13;;;3.33;;
77206;SDS011;66190;50.708;7.906;2023-04-25T03:34:30;13.60;;;3.53;;
77206;SDS011;66190;50.708;7.906;2023-04-25T03:36:56;11.55;;;3.53;;
77206;SDS011;66190;50.708;7.906;2023-04-25T03:39:21;11.18;;;3.63;;
77206;SDS011;66190;50.708;7.906;2023-04-25T03:41:46;12.10;;;3.30;;
77206;SDS011;66190;50.708;7.906;2023-04-25T03:44:12;13.17;;;3.60;;
77206;SDS011;66190;50.708;7.906;2023-04-25T03:46:37;9.90;;;3.20;;
77206;SDS011;66190;50.708;7.906;2023-04-25T03:49:03;12.98;;;3.60;;
77206;SDS011;66190;50.708;7.906;2023-04-25T03:51:28;11.32;;;3.25;;
77206;SDS011;66190;50.708;7.906;2023-04-25T03:53:54;9.67;;;3.10;;
77206;SDS011;66190;50.708;7.906;2023-04-25T03:56:19;10.67;;;2.97;;
77206;SDS011;66190;50.708;7.906;2023-04-25T03:58:45;15.73;;;3.35;;
77206;SDS011;66190;50.708;7.906;2023-04-25T04:01:11;12.23;;;3.43;;
77206;SDS011;66190;50.708;7.906;2023-04-25T04:03:36;9.10;;;3.10;;
77206;SDS011;66190;50.708;7.906;2023-04-25T04:06:02;12.80;;;3.13;;
77206;SDS011;66190;50.708;7.906;2023-04-25T04:08:29;12.07;;;3.00;;
77206;SDS011;66190;50.708;7.906;2023-04-25T04:10:55;11.45;;;3.33;;
77206;SDS011;66190;50.708;7.906;2023-04-25T04:13:20;15.97;;;3.87;;
77206;SDS011;66190;50.708;7.906;2023-04-25T04:15:46;12.80;;;3.17;;
77206;SDS011;66190;50.708;7.906;2023-04-25T04:18:11;12.20;;;3.03;;
77206;SDS011;66190;50.708;7.906;2023-04-25T04:20:36;12.10;;;3.37;;
77206;SDS011;66190;50.708;7.906;2023-04-25T04:23:02;11.87;;;3.10;;
77206;SDS011;66190;50.708;7.906;2023-04-25T04:25:28;11.82;;;3.40;;
77206;SDS011;66190;50.708;7.906;2023-04-25T04:27:53;18.08;;;4.55;;
77206;SDS011;66190;50.708;7.906;2023-04-25T04:30:23;13.93;;;3.03;;
77206;SDS011;66190;50.708;7.906;2023-04-25T04:32:49;11.35;;;3.17;;
77206;SDS011;66190;50.708;7.906;2023-04-25T04:35:15;11.02;;;2.78;;
77206;SDS011;66190;50.708;7.906;2023-04-25T04:37:40;13.33;;;3.37;;
77206;SDS011;66190;50.708;7.906;2023-04-25T04:40:06;14.23;;;3.87;;
77206;SDS011;66190;50.708;7.906;2023-04-25T04:42:32;10.57;;;3.55;;
77206;SDS011;66190;50.708;7.906;2023-04-25T04:44:57;12.47;;;3.80;;
77206;SDS011;66190;50.708;7.906;2023-04-25T04:47:23;16.10;;;4.00;;
77206;SDS011;66190;50.708;7.906;2023-04-25T04:49:50;15.65;;;4.55;;
77206;SDS011;66190;50.708;7.906;2023-04-25T04:52:16;19.37;;;6.57;;
77206;SDS011;66190;50.708;7.906;2023-04-25T04:54:41;15.37;;;4.40;;
77206;SDS011;66190;50.708;7.906;2023-04-25T04:57:07;15.03;;;4.60;;
77206;SDS011;66190;50.708;7.906;2023-04-25T04:59:32;24.20;;;8.75;;
77206;SDS011;66190;50.708;7.906;2023-04-25T05:01:57;13.23;;;4.60;;
77206;SDS011;66190;50.708;7.906;2023-04-25T05:04:23;17.70;;;5.33;;
77206;SDS011;66190;50.708;7.906;2023-04-25T05:06:48;23.07;;;7.70;;
77206;SDS011;66190;50.708;7.906;2023-04-25T05:09:14;16.02;;;5.85;;
77206;SDS011;66190;50.708;7.906;2023-04-25T05:11:40;14.68;;;4.68;;
77206;SDS011;66190;50.708;7.906;2023-04-25T05:14:05;13.00;;;4.93;;
77206;SDS011;66190;50.708;7.906;2023-04-25T05:16:30;14.60;;;4.53;;
77206;SDS011;66190;50.708;7.906;2023-04-25T05:18:56;15.43;;;4.85;;
77206;SDS011;66190;50.708;7.906;2023-04-25T05:21:21;15.67;;;5.00;;
77206;SDS011;66190;50.708;7.906;2023-04-25T05:23:47;14.27;;;5.50;;
77206;SDS011;66190;50.708;7.906;2023-04-25T05:26:12;13.10;;;4.90;;
77206;SDS011;66190;50.708;7.906;2023-04-25T05:28:41;14.20;;;5.00;;
77206;SDS011;66190;50.708;7.906;2023-04-25T05:31:07;15.18;;;4.57;;
77206;SDS011;66190;50.708;7.906;2023-04-25T05:33:34;16.38;;;4.97;;
77206;SDS011;66190;50.708;7.906;2023-04-25T05:36:00;13.03;;;4.63;;
77206;SDS011;66190;50.708;7.906;2023-04-25T05:38:25;12.93;;;4.57;;
77206;SDS011;66190;50.708;7.906;2023-04-25T05:40:51;16.15;;;5.20;;
77206;SDS011;66190;50.708;7.906;2023-04-25T05:43:16;15.27;;;3.65;;
77206;SDS011;66190;50.708;7.906;2023-04-25T05:45:42;14.63;;;3.63;;
77206;SDS011;66190;50.708;7.906;2023-04-25T05:48:07;12.67;;;3.77;;
77206;SDS011;66190;50.708;7.906;2023-04-25T05:50:33;17.30;;;4.67;;
77206;SDS011;66190;50.708;7.906;2023-04-25T05:52:58;13.67;;;3.87;;
77206;SDS011;66190;50.708;7.906;2023-04-25T05:55:23;16.98;;;4.55;;
77206;SDS011;66190;50.708;7.906;2023-04-25T05:57:49;11.17;;;4.53;;
77206;SDS011;66190;50.708;7.906;2023-04-25T06:00:15;9.20;;;2.83;;
77206;SDS011;66190;50.708;7.906;2023-04-25T06:02:40;17.67;;;4.80;;
77206;SDS011;66190;50.708;7.906;2023-04-25T06:05:06;16.02;;;4.80;;
77206;SDS011;66190;50.708;7.906;2023-04-25T06:07:32;15.77;;;4.70;;
77206;SDS011;66190;50.708;7.906;2023-04-25T06:09:58;17.38;;;5.30;;
77206;SDS011;66190;50.708;7.906;2023-04-25T06:12:25;18.50;;;6.70;;
77206;SDS011;66190;50.708;7.906;2023-04-25T06:14:50;11.80;;;4.60;;
77206;SDS011;66190;50.708;7.906;2023-04-25T06:17:15;14.80;;;5.80;;
77206;SDS011;66190;50.708;7.906;2023-04-25T06:19:41;14.87;;;5.73;;
77206;SDS011;66190;50.708;7.906;2023-04-25T06:22:07;12.67;;;4.73;;
77206;SDS011;66190;50.708;7.906;2023-04-25T06:24:32;16.88;;;5.35;;
77206;SDS011;66190;50.708;7.906;2023-04-25T06:26:58;15.27;;;5.63;;
77206;SDS011;66190;50.708;7.906;2023-04-25T06:29:24;13.68;;;4.97;;
77206;SDS011;66190;50.708;7.906;2023-04-25T06:31:50;20.35;;;5.55;;
77206;SDS011;66190;50.708;7.906;2023-04-25T06:34:15;19.02;;;4.82;;
77206;SDS011;66190;50.708;7.906;2023-04-25T06:36:41;13.20;;;4.40;;
77206;SDS011;66190;50.708;7.906;2023-04-25T06:39:06;13.73;;;4.10;;
77206;SDS011;66190;50.708;7.906;2023-04-25T06:41:32;12.25;;;4.03;;
77206;SDS011;66190;50.708;7.906;2023-04-25T06:43:57;14.37;;;4.20;;
77206;SDS011;66190;50.708;7.906;2023-04-25T06:46:23;14.30;;;4.47;;
77206;SDS011;66190;50.708;7.906;2023-04-25T06:48:48;17.60;;;5.20;;
77206;SDS011;66190;50.708;7.906;2023-04-25T06:51:14;11.25;;;3.55;;
77206;SDS011;66190;50.708;7.906;2023-04-25T06:53:39;15.40;;;5.27;;
77206;SDS011;66190;50.708;7.906;2023-04-25T06:56:05;14.25;;;4.80;;
77206;SDS011;66190;50.708;7.906;2023-04-25T06:58:31;11.40;;;3.53;;
77206;SDS011;66190;50.708;7.906;2023-04-25T07:00:56;13.73;;;5.30;;
77206;SDS011;66190;50.708;7.906;2023-04-25T07:03:22;15.18;;;4.88;;
77206;SDS011;66190;50.708;7.906;2023-04-25T07:05:48;16.98;;;4.65;;
77206;SDS011;66190;50.708;7.906;2023-04-25T07:08:15;12.67;;;4.50;;
77206;SDS011;66190;50.708;7.906;2023-04-25T07:10:40;19.00;;;5.30;;
77206;SDS011;66190;50.708;7.906;2023-04-25T07:13:05;20.73;;;6.70;;
77206;SDS011;66190;50.708;7.906;2023-04-25T07:15:31;13.33;;;4.73;;
77206;SDS011;66190;50.708;7.906;2023-04-25T07:17:56;13.87;;;4.50;;
77206;SDS011;66190;50.708;7.906;2023-04-25T07:20:22;15.40;;;4.57;;
77206;SDS011;66190;50.708;7.906;2023-04-25T07:22:47;14.25;;;4.30;;
77206;SDS011;66190;50.708;7.906;2023-04-25T07:25:12;16.57;;;5.50;;
77206;SDS011;66190;50.708;7.906;2023-04-25T07:27:38;18.80;;;6.47;;
77206;SDS011;66190;50.708;7.906;2023-04-25T07:30:04;18.08;;;7.13;;
77206;SDS011;66190;50.708;7.906;2023-04-25T07:32:30;16.93;;;6.93;;
77206;SDS011;66190;50.708;7.906;2023-04-25T07:34:55;20.08;;;6.55;;
77206;SDS011;66190;50.708;7.906;2023-04-25T07:37:21;12.07;;;4.60;;
77206;SDS011;66190;50.708;7.906;2023-04-25T07:39:46;12.47;;;4.23;;
77206;SDS011;66190;50.708;7.906;2023-04-25T07:42:12;25.17;;;10.07;;
77206;SDS011;66190;50.708;7.906;2023-04-25T07:44:38;16.90;;;6.33;;
77206;SDS011;66190;50.708;7.906;2023-04-25T07:47:06;12.87;;;5.07;;
77206;SDS011;66190;50.708;7.906;2023-04-25T07:49:32;11.43;;;4.10;;
77206;SDS011;66190;50.708;7.906;2023-04-25T07:52:02;11.35;;;3.70;;
77206;SDS011;66190;50.708;7.906;2023-04-25T07:54:28;9.23;;;2.90;;
77206;SDS011;66190;50.708;7.906;2023-04-25T07:56:54;13.35;;;4.47;;
77206;SDS011;66190;50.708;7.906;2023-04-25T07:59:20;13.50;;;4.63;;
77206;SDS011;66190;50.708;7.906;2023-04-25T08:01:46;15.57;;;4.63;;
77206;SDS011;66190;50.708;7.906;2023-04-25T08:04:12;12.40;;;3.80;;
77206;SDS011;66190;50.708;7.906;2023-04-25T08:06:37;12.15;;;4.43;;
77206;SDS011;66190;50.708;7.906;2023-04-25T08:09:03;10.30;;;3.63;;
77206;SDS011;66190;50.708;7.906;2023-04-25T08:11:29;9.63;;;2.60;;
77206;SDS011;66190;50.708;7.906;2023-04-25T08:13:54;10.90;;;3.05;;
77206;SDS011;66190;50.708;7.906;2023-04-25T08:16:20;8.77;;;2.90;;
77206;SDS011;66190;50.708;7.906;2023-04-25T08:18:45;9.50;;;2.92;;
77206;SDS011;66190;50.708;7.906;2023-04-25T08:21:11;13.35;;;3.22;;
77206;SDS011;66190;50.708;7.906;2023-04-25T08:23:37;8.68;;;3.00;;
77206;SDS011;66190;50.708;7.906;2023-04-25T08:26:03;11.07;;;2.80;;
77206;SDS011;66190;50.708;7.906;2023-04-25T08:28:29;13.63;;;3.60;;
77206;SDS011;66190;50.708;7.906;2023-04-25T08:30:55;8.97;;;2.77;;
77206;SDS011;66190;50.708;7.906;2023-04-25T08:33:20;10.15;;;3.33;;
77206;SDS011;66190;50.708;7.906;2023-04-25T08:35:45;10.50;;;3.30;;
77206;SDS011;66190;50.708;7.906;2023-04-25T08:38:11;9.97;;;2.97;;
77206;SDS011;66190;50.708;7.906;2023-04-25T08:40:37;11.80;;;3.33;;
77206;SDS011;66190;50.708;7.906;2023-04-25T08:43:03;12.57;;;3.03;;
77206;SDS011;66190;50.708;7.906;2023-04-25T08:45:36;8.30;;;2.38;;
77206;SDS011;66190;50.708;7.906;2023-04-25T08:48:11;11.77;;;3.10;;
77206;SDS011;66190;50.708;7.906;2023-04-25T08:50:50;12.90;;;3.00;;
77206;SDS011;66190;50.708;7.906;2023-04-25T08:53:17;12.98;;;3.20;;
77206;SDS011;66190;50.708;7.906;2023-04-25T08:55:51;9.15;;;2.50;;
77206;SDS011;66190;50.708;7.906;2023-04-25T08:58:18;12.98;;;2.90;;
77206;SDS011;66190;50.708;7.906;2023-04-25T09:00:45;9.30;;;2.42;;
77206;SDS011;66190;50.708;7.906;2023-04-25T09:03:11;9.90;;;2.20;;
77206;SDS011;66190;50.708;7.906;2023-04-25T09:05:37;10.55;;;2.45;;
77206;SDS011;66190;50.708;7.906;2023-04-25T09:08:05;11.10;;;2.30;;
77206;SDS011;66190;50.708;7.906;2023-04-25T09:10:31;10.53;;;2.40;;
77206;SDS011;66190;50.708;7.906;2023-04-25T09:13:03;9.02;;;2.70;;
77206;SDS011;66190;50.708;7.906;2023-04-25T09:15:47;12.77;;;2.27;;
77206;SDS011;66190;50.708;7.906;2023-04-25T09:18:23;10.27;;;2.20;;
77206;SDS011;66190;50.708;7.906;2023-04-25T09:20:58;10.60;;;2.78;;
77206;SDS011;66190;50.708;7.906;2023-04-25T09:23:30;10.27;;;1.98;;
77206;SDS011;66190;50.708;7.906;2023-04-25T09:26:03;6.88;;;1.13;;
77206;SDS011;66190;50.708;7.906;2023-04-25T09:28:32;8.83;;;2.00;;
77206;SDS011;66190;50.708;7.906;2023-04-25T09:30:57;9.77;;;2.33;;
77206;SDS011;66190;50.708;7.906;2023-04-25T09:33:27;8.27;;;2.20;;
77206;SDS011;66190;50.708;7.906;2023-04-25T09:35:54;8.85;;;2.20;;
77206;SDS011;66190;50.708;7.906;2023-04-25T09:38:26;9.32;;;2.05;;
77206;SDS011;66190;50.708;7.906;2023-04-25T09:40:51;10.47;;;1.70;;
77206;SDS011;66190;50.708;7.906;2023-04-25T09:43:20;11.38;;;2.20;;
77206;SDS011;66190;50.708;7.906;2023-04-25T09:45:50;8.15;;;1.80;;
77206;SDS011;66190;50.708;7.906;2023-04-25T09:48:18;7.22;;;1.85;;
77206;SDS011;66190;50.708;7.906;2023-04-25T09:51:08;9.75;;;2.15;;
77206;SDS011;66190;50.708;7.906;2023-04-25T09:53:37;10.57;;;1.92;;
77206;SDS011;66190;50.708;7.906;2023-04-25T09:56:06;10.18;;;2.60;;
77206;SDS011;66190;50.708;7.906;2023-04-25T09:58:34;8.15;;;2.53;;
77206;SDS011;66190;50.708;7.906;2023-04-25T10:01:01;7.88;;;2.00;;
77206;SDS011;66190;50.708;7.906;2023-04-25T10:03:33;7.30;;;1.90;;
77206;SDS011;66190;50.708;7.906;2023-04-25T10:06:00;5.85;;;1.70;;
77206;SDS011;66190;50.708;7.906;2023-04-25T10:08:34;7.93;;;1.88;;
77206;SDS011;66190;50.708;7.906;2023-04-25T10:11:01;10.57;;;3.00;;
77206;SDS011;66190;50.708;7.906;2023-04-25T10:13:32;10.02;;;2.47;;
77206;SDS011;66190;50.708;7.906;2023-04-25T10:15:58;9.90;;;2.15;;
77206;SDS011;66190;50.708;7.906;2023-04-25T10:18:26;6.20;;;2.42;;
77206;SDS011;66190;50.708;7.906;2023-04-25T10:20:55;8.40;;;2.90;;
77206;SDS011;66190;50.708;7.906;2023-04-25T10:23:23;12.45;;;3.00;;
77206;SDS011;66190;50.708;7.906;2023-04-25T10:25:52;8.77;;;2.22;;
77206;SDS011;66190;50.708;7.906;2023-04-25T10:28:19;9.65;;;2.45;;
77206;SDS011;66190;50.708;7.906;2023-04-25T10:30:57;9.98;;;2.47;;
77206;SDS011;66190;50.708;7.906;2023-04-25T10:36:30;8.25;;;2.90;;
77206;SDS011;66190;50.708;7.906;2023-04-25T10:38:56;8.48;;;2.33;;
77206;SDS011;66190;50.708;7.906;2023-04-25T10:41:27;9.57;;;2.80;;
77206;SDS011;66190;50.708;7.906;2023-04-25T10:44:00;7.55;;;2.65;;
77206;SDS011;66190;50.708;7.906;2023-04-25T10:46:28;11.35;;;3.15;;
77206;SDS011;66190;50.708;7.906;2023-04-25T10:48:59;8.20;;;2.92;;
77206;SDS011;66190;50.708;7.906;2023-04-25T10:53:59;6.15;;;1.88;;
77206;SDS011;66190;50.708;7.906;2023-04-25T10:56:30;10.20;;;2.25;;
77206;SDS011;66190;50.708;7.906;2023-04-25T11:01:45;6.75;;;2.20;;
77206;SDS011;66190;50.708;7.906;2023-04-25T11:04:19;12.15;;;3.75;;
77206;SDS011;66190;50.708;7.906;2023-04-25T11:09:47;12.57;;;3.30;;
77206;SDS011;66190;50.708;7.906;2023-04-25T11:12:14;8.75;;;2.78;;
77206;SDS011;66190;50.708;7.906;2023-04-25T11:14:40;9.15;;;2.53;;
77206;SDS011;66190;50.708;7.906;2023-04-25T11:17:05;6.70;;;2.42;;
77206;SDS011;66190;50.708;7.906;2023-04-25T11:19:31;10.50;;;1.85;;
77206;SDS011;66190;50.708;7.906;2023-04-25T11:22:00;5.85;;;1.77;;
77206;SDS011;66190;50.708;7.906;2023-04-25T11:24:30;9.38;;;1.80;;
77206;SDS011;66190;50.708;7.906;2023-04-25T11:26:59;9.35;;;1.92;;
77206;SDS011;66190;50.708;7.906;2023-04-25T11:29:30;6.28;;;1.90;;
77206;SDS011;66190;50.708;7.906;2023-04-25T11:31:56;6.60;;;1.92;;
77206;SDS011;66190;50.708;7.906;2023-04-25T11:34:23;7.28;;;2.08;;
77206;SDS011;66190;50.708;7.906;2023-04-25T11:36:58;7.35;;;2.50;;
77206;SDS011;66190;50.708;7.906;2023-04-25T11:39:25;8.18;;;2.67;;
77206;SDS011;66190;50.708;7.906;2023-04-25T11:41:51;10.57;;;2.58;;
77206;SDS011;66190;50.708;7.906;2023-04-25T11:44:17;7.10;;;2.70;;
77206;SDS011;66190;50.708;7.906;2023-04-25T11:46:43;9.85;;;2.40;;
77206;SDS011;66190;50.708;7.906;2023-04-25T11:49:10;6.28;;;2.17;;
77206;SDS011;66190;50.708;7.906;2023-04-25T11:51:39;9.65;;;2.63;;
77206;SDS011;66190;50.708;7.906;2023-04-25T11:54:08;10.25;;;2.42;;
77206;SDS011;66190;50.708;7.906;2023-04-25T11:56:35;9.23;;;2.78;;
77206;SDS011;66190;50.708;7.906;2023-04-25T11:59:01;7.83;;;2.23;;
77206;SDS011;66190;50.708;7.906;2023-04-25T12:01:33;9.00;;;2.58;;
77206;SDS011;66190;50.708;7.906;2023-04-25T12:04:10;6.57;;;2.10;;
77206;SDS011;66190;50.708;7.906;2023-04-25T12:06:57;9.40;;;2.30;;
77206;SDS011;66190;50.708;7.906;2023-04-25T12:09:32;8.90;;;2.38;;
77206;SDS011;66190;50.708;7.906;2023-04-25T12:11:59;6.97;;;2.30;;
77206;SDS011;66190;50.708;7.906;2023-04-25T12:14:29;7.15;;;1.98;;
77206;SDS011;66190;50.708;7.906;2023-04-25T12:16:58;5.63;;;1.73;;
77206;SDS011;66190;50.708;7.906;2023-04-25T12:19:24;8.90;;;2.00;;
77206;SDS011;66190;50.708;7.906;2023-04-25T12:21:51;6.18;;;2.08;;
77206;SDS011;66190;50.708;7.906;2023-04-25T12:24:18;6.57;;;1.63;;
77206;SDS011;66190;50.708;7.906;2023-04-25T12:27:09;7.63;;;1.85;;
77206;SDS011;66190;50.708;7.906;2023-04-25T12:29:34;8.07;;;2.63;;
77206;SDS011;66190;50.708;7.906;2023-04-25T12:31:59;9.65;;;2.05;;
77206;SDS011;66190;50.708;7.906;2023-04-25T12:34:27;8.88;;;2.10;;
77206;SDS011;66190;50.708;7.906;2023-04-25T12:36:53;9.27;;;1.60;;
77206;SDS011;66190;50.708;7.906;2023-04-25T12:39:19;7.93;;;1.73;;
77206;SDS011;66190;50.708;7.906;2023-04-25T12:41:49;6.72;;;1.90;;
77206;SDS011;66190;50.708;7.906;2023-04-25T12:44:15;8.25;;;2.28;;
77206;SDS011;66190;50.708;7.906;2023-04-25T12:46:42;6.32;;;1.88;;
77206;SDS011;66190;50.708;7.906;2023-04-25T12:49:07;9.50;;;1.88;;
77206;SDS011;66190;50.708;7.906;2023-04-25T12:51:33;8.63;;;3.25;;
77206;SDS011;66190;50.708;7.906;2023-04-25T12:54:02;8.20;;;2.67;;
77206;SDS011;66190;50.708;7.906;2023-04-25T12:56:29;8.63;;;2.40;;
77206;SDS011;66190;50.708;7.906;2023-04-25T12:58:56;11.20;;;4.07;;
77206;SDS011;66190;50.708;7.906;2023-04-25T13:01:22;9.88;;;2.35;;
77206;SDS011;66190;50.708;7.906;2023-04-25T13:03:49;12.32;;;4.25;;
77206;SDS011;66190;50.708;7.906;2023-04-25T13:06:15;7.15;;;1.95;;
77206;SDS011;66190;50.708;7.906;2023-04-25T13:08:40;7.82;;;1.73;;
77206;SDS011;66190;50.708;7.906;2023-04-25T13:11:06;8.30;;;1.73;;
77206;SDS011;66190;50.708;7.906;2023-04-25T13:13:32;7.50;;;2.28;;
77206;SDS011;66190;50.708;7.906;2023-04-25T13:15:59;7.77;;;2.70;;
77206;SDS011;66190;50.708;7.906;2023-04-25T13:18:26;6.55;;;2.20;;
77206;SDS011;66190;50.708;7.906;2023-04-25T13:20:52;7.55;;;2.30;;
77206;SDS011;66190;50.708;7.906;2023-04-25T13:23:18;9.63;;;2.63;;
77206;SDS011;66190;50.708;7.906;2023-04-25T13:25:44;18.08;;;5.25;;
77206;SDS011;66190;50.708;7.906;2023-04-25T13:28:09;13.97;;;4.33;;
77206;SDS011;66190;50.708;7.906;2023-04-25T13:30:35;9.77;;;2.60;;
77206;SDS011;66190;50.708;7.906;2023-04-25T13:33:00;7.93;;;2.35;;
77206;SDS011;66190;50.708;7.906;2023-04-25T13:35:28;9.02;;;2.33;;
77206;SDS011;66190;50.708;7.906;2023-04-25T13:37:54;6.28;;;2.00;;
77206;SDS011;66190;50.708;7.906;2023-04-25T13:40:20;10.63;;;2.20;;
77206;SDS011;66190;50.708;7.906;2023-04-25T13:42:45;7.28;;;1.90;;
77206;SDS011;66190;50.708;7.906;2023-04-25T13:45:11;4.40;;;1.37;;
77206;SDS011;66190;50.708;7.906;2023-04-25T13:47:36;5.93;;;1.30;;
77206;SDS011;66190;50.708;7.906;2023-04-25T13:50:02;8.97;;;1.87;;
77206;SDS011;66190;50.708;7.906;2023-04-25T13:52:28;6.40;;;1.30;;
77206;SDS011;66190;50.708;7.906;2023-04-25T13:54:54;7.20;;;2.42;;
77206;SDS011;66190;50.708;7.906;2023-04-25T13:57:19;6.63;;;1.50;;
77206;SDS011;66190;50.708;7.906;2023-04-25T13:59:45;5.15;;;2.05;;
77206;SDS011;66190;50.708;7.906;2023-04-25T14:02:11;6.65;;;1.73;;
77206;SDS011;66190;50.708;7.906;2023-04-25T14:04:37;6.40;;;1.52;;
77206;SDS011;66190;50.708;7.906;2023-04-25T14:07:02;6.47;;;1.60;;
77206;SDS011;66190;50.708;7.906;2023-04-25T14:09:29;5.95;;;1.52;;
77206;SDS011;66190;50.708;7.906;2023-04-25T14:11:54;7.40;;;1.70;;
77206;SDS011;66190;50.708;7.906;2023-04-25T14:14:21;6.72;;;1.52;;
77206;SDS011;66190;50.708;7.906;2023-04-25T14:16:47;7.82;;;1.92;;
77206;SDS011;66190;50.708;7.906;2023-04-25T14:19:20;8.93;;;2.00;;
77206;SDS011;66190;50.708;7.906;2023-04-25T14:21:46;6.60;;;1.40;;
77206;SDS011;66190;50.708;7.906;2023-04-25T14:24:11;6.77;;;1.30;;
77206;SDS011;66190;50.708;7.906;2023-04-25T14:26:38;4.85;;;1.20;;
77206;SDS011;66190;50.708;7.906;2023-04-25T14:29:07;7.70;;;1.10;;
77206;SDS011;66190;50.708;7.906;2023-04-25T14:31:33;6.88;;;1.25;;
77206;SDS011;66190;50.708;7.906;2023-04-25T14:34:00;8.95;;;1.60;;
77206;SDS011;66190;50.708;7.906;2023-04-25T14:36:26;5.30;;;1.20;;
77206;SDS011;66190;50.708;7.906;2023-04-25T14:38:53;6.63;;;1.70;;
77206;SDS011;66190;50.708;7.906;2023-04-25T14:41:18;5.40;;;1.30;;
77206;SDS011;66190;50.708;7.906;2023-04-25T14:43:43;7.33;;;1.50;;
77206;SDS011;66190;50.708;7.906;2023-04-25T14:46:10;6.65;;;1.20;;
77206;SDS011;66190;50.708;7.906;2023-04-25T14:48:35;6.97;;;1.47;;